Time;durP1;ratioP1;P1;durP2;ratioP2;P2;SDS_P1;SDS_P2;PMS_P1;PMS_P2;Temp;Humidity;BMP_temperature;BMP_pressure;BME280_temperature;BME280_humidity;BME280_pressure;Samples;Min_cycle;Max_cycle;Signal;HPM_P1;HPM_P2
2022/02/18 00:00:01;;;;;;;;;;;;;;;14.71;41.74;99511.81;4428930;32;19949;-68
2022/02/18 00:02:26;;;;;;;;;;;;;;;14.58;42.37;99506.53;4426801;32;19973;-68
2022/02/18 00:04:52;;;;;;;;;;;;;;;14.27;43.07;99519.72;4430210;32;21186;-68
2022/02/18 00:07:17;;;;;;;;;;;;;;;14.13;44.01;99501.50;4429439;32;19996;-68
2022/02/18 00:09:44;;;;;;;;;;;;;;;14.11;44.22;99497.59;4431196;32;20004;-68
2022/02/18 00:12:11;;;;;;;;;;;;;;;14.10;44.62;99488.31;4428602;32;20035;-68
2022/02/18 00:14:38;;;;;;;;;;;;;;;14.26;44.44;99487.81;4418153;32;19984;-68
2022/02/18 00:17:03;;;;;;;;;;;;;;;13.98;44.44;99475.28;4414985;32;20398;-68
2022/02/18 00:19:29;;;;;;;;;;;;;;;14.12;44.51;99457.50;4417301;32;19965;-68
2022/02/18 00:21:55;;;;;;;;;;;;;;;14.07;44.53;99455.38;4418842;32;19957;-68
2022/02/18 00:24:21;;;;;;;;;;;;;;;14.04;44.82;99440.16;4421414;32;19997;-68
2022/02/18 00:26:47;;;;;;;;;;;;;;;14.26;44.54;99427.63;4417590;32;19966;-68
2022/02/18 00:29:13;;;;;;;;;;;;;;;14.36;44.46;99417.72;4419504;32;20359;-68
2022/02/18 00:31:38;;;;;;;;;;;;;;;14.25;44.94;99404.19;4416357;32;20027;-68
2022/02/18 00:34:04;;;;;;;;;;;;;;;14.47;44.83;99398.00;4420310;32;19973;-69
2022/02/18 00:36:30;;;;;;;;;;;;;;;14.68;44.89;99388.22;4417393;32;19997;-68
2022/02/18 00:38:55;;;;;;;;;;;;;;;14.80;44.79;99378.56;4417380;32;19949;-68
2022/02/18 00:41:21;;;;;;;;;;;;;;;14.85;45.05;99367.28;4419565;32;20037;-68
2022/02/18 00:43:47;;;;;;;;;;;;;;;14.77;44.65;99354.88;4418901;32;19952;-68
2022/02/18 00:46:12;;;;;;;;;;;;;;;14.97;43.98;99349.09;4415047;32;20369;-68
2022/02/18 00:48:38;;;;;;;;;;;;;;;14.94;44.20;99347.28;4418342;32;20351;-68
2022/02/18 00:51:03;;;;;;;;;;;;;;;15.07;44.71;99338.37;4418784;32;20006;-69
2022/02/18 00:53:29;;;;;;;;;;;;;;;15.05;44.14;99332.44;4416932;32;20059;-69
2022/02/18 00:55:54;;;;;;;;;;;;;;;15.13;44.21;99322.97;4419742;32;20022;-69
2022/02/18 00:58:20;;;;;;;;;;;;;;;15.10;44.61;99323.97;4415426;32;20020;-68
2022/02/18 01:00:47;;;;;;;;;;;;;;;15.10;44.71;99311.88;4418166;32;21086;-68
2022/02/18 01:03:13;;;;;;;;;;;;;;;14.81;44.36;99312.94;4414245;32;19993;-68
2022/02/18 01:05:39;;;;;;;;;;;;;;;14.64;45.12;99306.34;4420438;32;19960;-68
2022/02/18 01:08:05;;;;;;;;;;;;;;;14.51;45.59;99291.78;4418496;32;19992;-68
2022/02/18 01:10:31;;;;;;;;;;;;;;;13.97;46.70;99281.44;4419061;32;19965;-68
2022/02/18 01:12:57;;;;;;;;;;;;;;;13.68;46.84;99270.25;4417996;32;19950;-68
2022/02/18 01:15:22;;;;;;;;;;;;;;;13.43;47.83;99256.84;4420434;32;19993;-68
2022/02/18 01:17:47;;;;;;;;;;;;;;;13.35;48.17;99241.59;4416814;32;19985;-68
2022/02/18 01:20:13;;;;;;;;;;;;;;;13.02;48.58;99232.63;4417224;32;19973;-68
2022/02/18 01:22:39;;;;;;;;;;;;;;;13.00;49.22;99229.53;4417114;32;19968;-68
2022/02/18 01:25:05;;;;;;;;;;;;;;;13.32;49.33;99234.84;4417092;32;20031;-68
2022/02/18 01:27:31;;;;;;;;;;;;;;;13.17;49.20;99205.91;4420092;32;20003;-68
2022/02/18 01:29:56;;;;;;;;;;;;;;;13.34;48.77;99198.41;4416552;32;20013;-68
2022/02/18 01:32:22;;;;;;;;;;;;;;;13.51;48.74;99196.59;4419882;32;20031;-68
2022/02/18 01:34:48;;;;;;;;;;;;;;;13.44;49.22;99185.69;4404333;32;19983;-68
2022/02/18 01:37:14;;;;;;;;;;;;;;;13.25;49.36;99178.78;4420372;32;20375;-69
2022/02/18 01:39:39;;;;;;;;;;;;;;;13.30;49.35;99166.00;4418311;32;20036;-69
2022/02/18 01:42:05;;;;;;;;;;;;;;;13.27;49.75;99155.69;4415992;32;19980;-69
2022/02/18 01:44:32;;;;;;;;;;;;;;;13.31;49.46;99137.25;4417072;32;20037;-69
2022/02/18 01:46:58;;;;;;;;;;;;;;;13.08;49.46;99123.38;4419266;32;20001;-69
2022/02/18 01:49:23;;;;;;;;;;;;;;;12.78;50.58;99107.78;4404918;32;20383;-68
2022/02/18 01:51:49;;;;;;;;;;;;;;;12.84;50.79;99091.69;4419021;32;19953;-69
2022/02/18 01:54:14;;;;;;;;;;;;;;;12.68;51.37;99078.16;4419457;32;20422;-68
2022/02/18 01:56:40;;;;;;;;;;;;;;;12.26;52.22;99069.31;4418669;32;20295;-68
2022/02/18 01:59:05;;;;;;;;;;;;;;;12.50;51.99;99062.25;4416263;32;20455;-68
2022/02/18 02:01:30;;;;;;;;;;;;;;;12.40;52.05;99049.56;4418846;32;19962;-68
2022/02/18 02:03:56;;;;;;;;;;;;;;;12.53;51.68;99038.72;4420527;32;20672;-68
2022/02/18 02:06:23;;;;;;;;;;;;;;;12.62;51.74;99024.47;4416825;32;19954;-68
2022/02/18 02:08:48;;;;;;;;;;;;;;;12.99;51.13;99000.06;4421363;32;20555;-68
2022/02/18 02:11:14;;;;;;;;;;;;;;;13.16;50.83;98978.41;4415569;32;19949;-68
2022/02/18 02:13:43;;;;;;;;;;;;;;;12.99;51.25;98957.69;4416516;32;19973;-68
2022/02/18 02:16:12;;;;;;;;;;;;;;;13.28;50.64;98948.97;4416238;32;19998;-69
2022/02/18 02:18:37;;;;;;;;;;;;;;;13.30;50.54;98935.16;4419094;32;20011;-68
2022/02/18 02:21:03;;;;;;;;;;;;;;;13.29;50.76;98922.28;4416847;32;21131;-68
2022/02/18 02:23:29;;;;;;;;;;;;;;;13.05;51.38;98904.09;4417169;32;19957;-68
2022/02/18 02:25:55;;;;;;;;;;;;;;;13.09;51.28;98890.53;4418323;32;19953;-68
2022/02/18 02:28:20;;;;;;;;;;;;;;;12.48;52.86;98880.63;4419111;32;20385;-68
2022/02/18 02:30:47;;;;;;;;;;;;;;;12.63;52.65;98867.22;4418956;32;19958;-69
2022/02/18 02:33:12;;;;;;;;;;;;;;;12.65;52.71;98845.69;4416280;32;19964;-69
2022/02/18 02:35:39;;;;;;;;;;;;;;;12.61;52.81;98833.09;4417770;32;20525;-68
2022/02/18 02:38:05;;;;;;;;;;;;;;;12.56;53.18;98819.69;4418258;32;19989;-69
2022/02/18 02:40:31;;;;;;;;;;;;;;;12.78;52.88;98806.56;4415318;32;20066;-69
2022/02/18 02:42:58;;;;;;;;;;;;;;;13.17;52.04;98793.56;4405362;32;20001;-69
2022/02/18 02:45:23;;;;;;;;;;;;;;;13.37;51.69;98784.97;4417450;32;19996;-68
2022/02/18 02:47:48;;;;;;;;;;;;;;;13.39;51.61;98770.31;4417398;32;20355;-68
2022/02/18 02:50:14;;;;;;;;;;;;;;;13.30;51.51;98760.00;4400997;32;19996;-69
2022/02/18 02:52:40;;;;;;;;;;;;;;;13.60;51.03;98751.94;4415290;32;20000;-68
2022/02/18 02:55:07;;;;;;;;;;;;;;;13.28;51.93;98745.59;4415984;32;19985;-69
2022/02/18 02:57:33;;;;;;;;;;;;;;;13.52;51.61;98733.91;4417647;32;19954;-68
2022/02/18 02:59:58;;;;;;;;;;;;;;;12.86;52.55;98717.31;4415163;32;20003;-68
2022/02/18 03:02:24;;;;;;;;;;;;;;;12.86;52.62;98699.63;4404384;32;20811;-68
2022/02/18 03:04:50;;;;;;;;;;;;;;;12.60;53.29;98679.16;4419075;32;19957;-67
2022/02/18 03:07:15;;;;;;;;;;;;;;;12.21;53.94;98650.66;4414625;32;20007;-68
2022/02/18 03:09:41;;;;;;;;;;;;;;;12.03;54.21;98654.59;4417594;32;19953;-68
2022/02/18 03:12:08;;;;;;;;;;;;;;;12.03;54.67;98653.84;4410742;32;19977;-68
2022/02/18 03:14:33;;;;;;;;;;;;;;;12.13;54.57;98626.22;4413138;32;19977;-67
2022/02/18 03:17:00;;;;;;;;;;;;;;;12.57;53.95;98609.62;4413953;32;19961;-70
2022/02/18 03:19:25;;;;;;;;;;;;;;;12.60;53.89;98577.59;4414462;32;20059;-68
2022/02/18 03:21:51;;;;;;;;;;;;;;;12.60;54.02;98558.63;4414692;32;20013;-68
2022/02/18 03:24:18;;;;;;;;;;;;;;;12.81;53.75;98540.25;4414086;32;20276;-68
2022/02/18 03:26:47;;;;;;;;;;;;;;;12.84;53.42;98513.84;4414790;32;19972;-69
2022/02/18 03:29:17;;;;;;;;;;;;;;;13.18;53.08;98492.94;4414534;32;20002;-68
2022/02/18 03:31:46;;;;;;;;;;;;;;;13.53;52.31;98472.69;4412277;32;20012;-68
2022/02/18 03:34:14;;;;;;;;;;;;;;;13.71;52.03;98467.28;4419173;32;19965;-68
2022/02/18 03:36:44;;;;;;;;;;;;;;;13.79;51.49;98462.66;4414904;32;20008;-68
2022/02/18 03:39:10;;;;;;;;;;;;;;;13.80;51.18;98446.47;4417140;32;20408;-68
2022/02/18 03:41:35;;;;;;;;;;;;;;;13.93;50.49;98441.06;4413623;32;19997;-68
2022/02/18 03:44:01;;;;;;;;;;;;;;;13.82;49.77;98424.91;4416278;32;20071;-68
2022/02/18 03:46:26;;;;;;;;;;;;;;;13.98;50.51;98421.25;4417490;32;19995;-69
2022/02/18 03:48:52;;;;;;;;;;;;;;;14.26;50.83;98414.81;4420771;32;19993;-69
2022/02/18 03:51:18;;;;;;;;;;;;;;;14.28;50.26;98400.87;4418029;32;19961;-69
2022/02/18 03:53:45;;;;;;;;;;;;;;;14.01;50.51;98380.66;4420154;32;20011;-68
2022/02/18 03:56:12;;;;;;;;;;;;;;;14.29;50.09;98388.31;4416006;32;20397;-69
2022/02/18 03:58:38;;;;;;;;;;;;;;;14.24;50.38;98387.03;4418016;32;19961;-68
2022/02/18 04:01:03;;;;;;;;;;;;;;;14.46;50.25;98384.09;4421297;32;19953;-69
2022/02/18 04:03:29;;;;;;;;;;;;;;;14.52;50.38;98376.34;4418948;32;19972;-68
2022/02/18 04:05:54;;;;;;;;;;;;;;;14.53;49.61;98348.81;4419348;32;19989;-69
2022/02/18 04:08:20;;;;;;;;;;;;;;;14.78;49.97;98353.28;4419930;32;20024;-68
2022/02/18 04:10:45;;;;;;;;;;;;;;;14.78;49.76;98350.47;4420388;32;19957;-68
2022/02/18 04:13:11;;;;;;;;;;;;;;;14.98;49.85;98330.25;4417405;32;20320;-69
2022/02/18 04:15:36;;;;;;;;;;;;;;;14.78;50.14;98305.94;4421566;32;19984;-68
2022/02/18 04:18:02;;;;;;;;;;;;;;;14.73;49.79;98311.66;4404903;32;19965;-68
2022/02/18 04:20:28;;;;;;;;;;;;;;;14.48;50.33;98305.09;4408250;32;19973;-68
2022/02/18 04:22:54;;;;;;;;;;;;;;;14.42;50.46;98280.97;4417137;32;19954;-69
2022/02/18 04:25:19;;;;;;;;;;;;;;;14.81;49.84;98279.41;4418035;32;19997;-69
2022/02/18 04:27:53;;;;;;;;;;;;;;;14.93;50.00;98277.25;4414374;32;20022;-69
2022/02/18 04:30:19;;;;;;;;;;;;;;;15.01;49.70;98264.06;4419337;32;19953;-69
2022/02/18 04:32:44;;;;;;;;;;;;;;;15.07;49.22;98245.72;4416770;32;20350;-68
2022/02/18 04:35:11;;;;;;;;;;;;;;;15.10;49.06;98221.25;4416653;32;20709;-69
2022/02/18 04:37:37;;;;;;;;;;;;;;;15.09;49.73;98202.69;4417724;32;20381;-69
2022/02/18 04:40:03;;;;;;;;;;;;;;;15.27;49.77;98188.59;4419506;32;19973;-69
2022/02/18 04:42:28;;;;;;;;;;;;;;;15.44;49.65;98177.13;4421788;32;19991;-68
2022/02/18 04:44:54;;;;;;;;;;;;;;;15.40;49.59;98142.66;4418821;32;19963;-69
2022/02/18 04:47:19;;;;;;;;;;;;;;;15.36;49.21;98122.31;4407463;32;19986;-69
2022/02/18 04:49:45;;;;;;;;;;;;;;;15.50;49.35;98101.28;4420650;32;19959;-68
2022/02/18 04:52:11;;;;;;;;;;;;;;;15.47;49.33;98088.19;4402489;32;20017;-68
2022/02/18 04:54:37;;;;;;;;;;;;;;;15.35;49.10;98086.78;4405372;32;20004;-69
2022/02/18 04:57:02;;;;;;;;;;;;;;;15.32;49.02;98043.28;4416874;32;20282;-69
2022/02/18 04:59:28;;;;;;;;;;;;;;;15.32;48.55;98031.19;4416425;32;19956;-69
2022/02/18 05:01:54;;;;;;;;;;;;;;;15.23;49.07;98018.16;4404666;32;19995;-69
2022/02/18 05:04:20;;;;;;;;;;;;;;;15.36;49.09;98000.47;4418862;32;20363;-69
2022/02/18 05:06:45;;;;;;;;;;;;;;;15.35;48.99;97998.94;4420890;32;20004;-69
2022/02/18 05:09:11;;;;;;;;;;;;;;;15.37;49.07;97994.28;4415756;32;20908;-69
2022/02/18 05:11:37;;;;;;;;;;;;;;;15.21;49.42;97980.31;4419136;32;20117;-69
2022/02/18 05:14:02;;;;;;;;;;;;;;;15.19;49.63;97955.38;4402608;32;19961;-69
2022/02/18 05:16:28;;;;;;;;;;;;;;;15.30;49.37;97921.22;4417351;32;19953;-69
2022/02/18 05:18:55;;;;;;;;;;;;;;;15.22;49.64;97911.81;4416060;32;19960;-69
2022/02/18 05:21:22;;;;;;;;;;;;;;;14.82;50.23;97898.75;4418713;32;20052;-69
2022/02/18 05:23:48;;;;;;;;;;;;;;;15.26;49.89;97903.78;4420238;32;20027;-68
2022/02/18 05:26:13;;;;;;;;;;;;;;;15.08;50.19;97889.63;4416354;32;19997;-69
2022/02/18 05:28:39;;;;;;;;;;;;;;;15.04;50.31;97870.09;4416948;32;20345;-69
2022/02/18 05:31:04;;;;;;;;;;;;;;;15.22;50.28;97854.41;4422511;32;20109;-69
2022/02/18 05:33:30;;;;;;;;;;;;;;;15.42;50.10;97825.50;4417634;32;19989;-69
2022/02/18 05:35:55;;;;;;;;;;;;;;;15.63;49.62;97817.91;4419129;32;19989;-69
2022/02/18 05:38:21;;;;;;;;;;;;;;;15.35;50.04;97831.78;4416536;32;20005;-68
2022/02/18 05:40:46;;;;;;;;;;;;;;;14.89;50.96;97841.53;4417899;32;19980;-68
2022/02/18 05:43:12;;;;;;;;;;;;;;;15.13;50.80;97834.97;4420103;32;19989;-69
2022/02/18 05:45:38;;;;;;;;;;;;;;;15.18;50.86;97836.94;4417794;32;20341;-69
2022/02/18 05:48:04;;;;;;;;;;;;;;;15.16;50.97;97833.91;4416711;32;19976;-69
2022/02/18 05:50:29;;;;;;;;;;;;;;;15.29;50.76;97828.28;4414517;32;19976;-69
2022/02/18 05:52:55;;;;;;;;;;;;;;;15.09;51.55;97797.69;4417702;32;20327;-69
2022/02/18 05:55:21;;;;;;;;;;;;;;;15.25;50.79;97811.59;4417796;32;20039;-69
2022/02/18 05:57:47;;;;;;;;;;;;;;;15.41;51.03;97813.37;4419959;32;20045;-68
2022/02/18 06:00:13;;;;;;;;;;;;;;;15.51;51.22;97789.03;4416650;32;20004;-68
2022/02/18 06:02:39;;;;;;;;;;;;;;;15.37;51.79;97761.94;4413591;32;19976;-68
2022/02/18 06:05:05;;;;;;;;;;;;;;;15.36;52.06;97740.56;4420701;32;19991;-69
2022/02/18 06:07:30;;;;;;;;;;;;;;;15.48;52.18;97722.09;4415993;32;20065;-69
2022/02/18 06:09:56;;;;;;;;;;;;;;;15.60;51.87;97722.63;4416798;32;20430;-68
2022/02/18 06:12:21;;;;;;;;;;;;;;;15.79;51.43;97714.78;4414046;32;19961;-68
2022/02/18 06:14:50;;;;;;;;;;;;;;;15.41;52.29;97716.31;4414705;32;19977;-69
2022/02/18 06:17:16;;;;;;;;;;;;;;;15.69;51.77;97699.53;4414464;32;20012;-68
2022/02/18 06:19:42;;;;;;;;;;;;;;;15.90;51.12;97680.53;4417141;32;19985;-69
2022/02/18 06:22:07;;;;;;;;;;;;;;;15.60;51.32;97646.87;4415583;32;21655;-68
2022/02/18 06:24:32;;;;;;;;;;;;;;;15.54;52.05;97640.56;4407155;32;19958;-69
2022/02/18 06:26:59;;;;;;;;;;;;;;;15.22;53.28;97622.87;4414222;32;19965;-68
2022/02/18 06:29:24;;;;;;;;;;;;;;;15.37;53.28;97613.88;4419969;32;19961;-69
2022/02/18 06:31:50;;;;;;;;;;;;;;;15.29;54.63;97595.97;4417817;32;19964;-69
2022/02/18 06:34:15;;;;;;;;;;;;;;;15.11;55.07;97594.03;4417791;32;20104;-69
2022/02/18 06:36:41;;;;;;;;;;;;;;;15.26;55.20;97568.75;4419772;32;20327;-68
2022/02/18 06:39:06;;;;;;;;;;;;;;;15.12;54.67;97565.16;4414963;32;20016;-68
2022/02/18 06:41:31;;;;;;;;;;;;;;;15.40;54.19;97548.38;4419194;32;19949;-68
2022/02/18 06:43:57;;;;;;;;;;;;;;;15.81;53.58;97542.06;4413537;32;19969;-68
2022/02/18 06:46:23;;;;;;;;;;;;;;;15.52;54.16;97552.50;4416807;32;19957;-68
2022/02/18 06:48:49;;;;;;;;;;;;;;;15.56;53.48;97549.34;4414843;32;19958;-68
2022/02/18 06:51:14;;;;;;;;;;;;;;;15.74;53.92;97537.06;4417601;32;19962;-68
2022/02/18 06:53:40;;;;;;;;;;;;;;;15.81;53.79;97536.38;4414776;32;20343;-69
2022/02/18 06:56:05;;;;;;;;;;;;;;;15.55;54.91;97553.44;4415194;32;20383;-70
2022/02/18 06:58:31;;;;;;;;;;;;;;;15.26;55.21;97548.91;4416539;32;19996;-69
2022/02/18 07:00:57;;;;;;;;;;;;;;;15.40;54.96;97533.47;4404316;32;20011;-69
2022/02/18 07:03:22;;;;;;;;;;;;;;;15.68;53.84;97547.78;4416000;32;19989;-70
2022/02/18 07:05:48;;;;;;;;;;;;;;;15.42;53.74;97537.25;4418684;32;20654;-70
2022/02/18 07:08:14;;;;;;;;;;;;;;;15.56;53.92;97538.72;4413725;32;19997;-69
2022/02/18 07:10:41;;;;;;;;;;;;;;;15.29;53.94;97513.84;4415695;32;19988;-69
2022/02/18 07:13:07;;;;;;;;;;;;;;;15.37;53.64;97526.81;4416592;32;20004;-69
2022/02/18 07:15:33;;;;;;;;;;;;;;;15.10;53.51;97530.94;4412359;32;20402;-68
2022/02/18 07:18:00;;;;;;;;;;;;;;;14.80;53.22;97530.56;4418129;32;20279;-69
2022/02/18 07:20:26;;;;;;;;;;;;;;;14.24;53.68;97535.72;4415950;32;19942;-69
2022/02/18 07:22:52;;;;;;;;;;;;;;;14.57;53.00;97523.78;4420225;32;20022;-69
2022/02/18 07:25:18;;;;;;;;;;;;;;;14.44;52.98;97539.97;4417728;32;19953;-69
2022/02/18 07:27:44;;;;;;;;;;;;;;;14.40;52.80;97529.00;4418109;32;19962;-69
2022/02/18 07:30:11;;;;;;;;;;;;;;;14.61;52.63;97546.09;4417059;32;19949;-69
2022/02/18 07:32:37;;;;;;;;;;;;;;;14.36;53.16;97562.47;4419225;32;20009;-69
2022/02/18 07:35:02;;;;;;;;;;;;;;;14.46;52.67;97563.59;4415506;32;19993;-69
2022/02/18 07:37:28;;;;;;;;;;;;;;;14.64;52.93;97574.09;4419534;32;19993;-69
2022/02/18 07:39:53;;;;;;;;;;;;;;;14.74;53.07;97582.91;4419214;32;20016;-69
2022/02/18 07:42:19;;;;;;;;;;;;;;;14.26;53.01;97603.03;4422608;32;19949;-69
2022/02/18 07:44:45;;;;;;;;;;;;;;;14.31;53.19;97537.91;4419318;32;19965;-70
2022/02/18 07:47:11;;;;;;;;;;;;;;;14.10;53.21;97534.13;4417754;32;19992;-70
2022/02/18 07:49:40;;;;;;;;;;;;;;;14.17;52.54;97533.47;4420695;32;19965;-70
2022/02/18 07:52:07;;;;;;;;;;;;;;;14.33;51.84;97526.78;4416851;32;20432;-70
2022/02/18 07:54:33;;;;;;;;;;;;;;;14.27;51.52;97516.91;4418019;32;20000;-70
2022/02/18 07:56:59;;;;;;;;;;;;;;;14.18;51.34;97506.75;4416034;32;20357;-70
2022/02/18 07:59:25;;;;;;;;;;;;;;;14.51;50.56;97503.31;4418226;32;19954;-70
2022/02/18 08:01:50;;;;;;;;;;;;;;;14.42;50.61;97503.00;4416980;32;20048;-70
2022/02/18 08:04:16;;;;;;;;;;;;;;;14.37;51.00;97489.72;4419236;32;20034;-70
2022/02/18 08:06:42;;;;;;;;;;;;;;;14.26;50.76;97484.28;4415551;32;19995;-70
2022/02/18 08:09:08;;;;;;;;;;;;;;;14.19;50.62;97465.06;4421019;32;19992;-70
2022/02/18 08:11:33;;;;;;;;;;;;;;;14.18;50.03;97469.22;4415886;32;20431;-70
2022/02/18 08:13:59;;;;;;;;;;;;;;;14.37;49.41;97469.91;4421122;32;20004;-70
2022/02/18 08:16:27;;;;;;;;;;;;;;;14.26;49.76;97472.97;4404308;32;19962;-71
2022/02/18 08:18:54;;;;;;;;;;;;;;;14.59;49.36;97472.31;4418790;32;19992;-70
2022/02/18 08:21:19;;;;;;;;;;;;;;;14.38;48.94;97468.59;4417953;32;19966;-70
2022/02/18 08:23:46;;;;;;;;;;;;;;;14.17;49.75;97454.31;4416401;32;20048;-70
2022/02/18 08:26:12;;;;;;;;;;;;;;;14.56;48.85;97481.88;4417896;32;20043;-70
2022/02/18 08:28:37;;;;;;;;;;;;;;;14.54;48.50;97478.84;4418978;32;19965;-70
2022/02/18 08:31:03;;;;;;;;;;;;;;;15.20;48.17;97477.47;4419097;32;20315;-70
2022/02/18 08:33:28;;;;;;;;;;;;;;;15.45;47.77;97478.72;4418742;32;19949;-70
2022/02/18 08:35:54;;;;;;;;;;;;;;;15.34;47.02;97473.31;4419587;32;20323;-70
2022/02/18 08:38:20;;;;;;;;;;;;;;;14.96;47.33;97455.06;4417543;32;20000;-70
2022/02/18 08:40:46;;;;;;;;;;;;;;;14.98;47.35;97475.12;4418313;32;19988;-69
2022/02/18 08:43:11;;;;;;;;;;;;;;;15.08;47.31;97445.03;4417871;32;20019;-69
2022/02/18 08:45:37;;;;;;;;;;;;;;;14.83;47.77;97421.12;4405542;32;19971;-69
2022/02/18 08:48:03;;;;;;;;;;;;;;;14.74;47.50;97438.56;4418275;32;20019;-69
2022/02/18 08:50:28;;;;;;;;;;;;;;;15.07;46.79;97426.53;4415184;32;19996;-69
2022/02/18 08:52:54;;;;;;;;;;;;;;;15.34;45.97;97417.37;4415786;32;19980;-69
2022/02/18 08:55:21;;;;;;;;;;;;;;;15.19;45.14;97428.53;4417778;32;20453;-69
2022/02/18 08:57:48;;;;;;;;;;;;;;;15.05;44.94;97412.16;4417362;32;20113;-69
2022/02/18 09:00:15;;;;;;;;;;;;;;;15.24;44.20;97396.50;4418953;32;19972;-69
2022/02/18 09:02:41;;;;;;;;;;;;;;;15.15;44.23;97404.72;4420573;32;19958;-68
2022/02/18 09:05:07;;;;;;;;;;;;;;;15.21;44.07;97402.50;4416668;32;20017;-69
2022/02/18 09:07:33;;;;;;;;;;;;;;;15.01;43.97;97387.03;4417387;32;20388;-69
2022/02/18 09:09:59;;;;;;;;;;;;;;;15.06;44.26;97391.00;4413430;32;19965;-69
2022/02/18 09:12:24;;;;;;;;;;;;;;;14.67;44.87;97374.88;4419647;32;19965;-68
2022/02/18 09:14:51;;;;;;;;;;;;;;;13.96;45.13;97377.84;4415745;32;19965;-68
2022/02/18 09:17:16;;;;;;;;;;;;;;;13.73;45.14;97381.63;4417730;32;19969;-68
2022/02/18 09:19:42;;;;;;;;;;;;;;;13.84;45.70;97364.47;4419472;32;19957;-68
2022/02/18 09:22:07;;;;;;;;;;;;;;;13.87;46.99;97369.03;4416105;32;19968;-68
2022/02/18 09:24:33;;;;;;;;;;;;;;;13.90;46.88;97340.44;4419841;32;20029;-68
2022/02/18 09:26:59;;;;;;;;;;;;;;;13.94;46.94;97329.56;4416624;32;20659;-68
2022/02/18 09:29:26;;;;;;;;;;;;;;;14.01;46.75;97347.94;4418056;32;19975;-68
2022/02/18 09:31:53;;;;;;;;;;;;;;;13.76;47.25;97343.81;4418995;32;20056;-69
2022/02/18 09:34:19;;;;;;;;;;;;;;;13.64;47.69;97340.44;4413577;32;20255;-69
2022/02/18 09:36:44;;;;;;;;;;;;;;;13.58;48.39;97362.34;4416467;32;20000;-69
2022/02/18 09:39:12;;;;;;;;;;;;;;;12.80;49.47;97342.31;4406824;32;20008;-68
2022/02/18 09:41:39;;;;;;;;;;;;;;;12.48;50.08;97327.34;4416122;32;20039;-69
2022/02/18 09:44:06;;;;;;;;;;;;;;;12.05;51.81;97323.81;4418357;32;19961;-68
2022/02/18 09:46:32;;;;;;;;;;;;;;;12.12;52.19;97285.81;4415149;32;20005;-69
2022/02/18 09:48:58;;;;;;;;;;;;;;;12.26;52.69;97268.47;4419549;32;19979;-69
2022/02/18 09:51:23;;;;;;;;;;;;;;;12.34;52.72;97265.78;4417323;32;20006;-69
2022/02/18 09:53:49;;;;;;;;;;;;;;;11.56;53.99;97223.72;4420208;32;19965;-69
2022/02/18 09:56:17;;;;;;;;;;;;;;;11.99;53.52;97177.38;4414841;32;19962;-70
2022/02/18 09:58:43;;;;;;;;;;;;;;;11.82;54.02;97147.91;4415217;32;19972;-69
2022/02/18 10:01:08;;;;;;;;;;;;;;;12.07;53.71;97169.84;4416219;32;20317;-69
2022/02/18 10:03:35;;;;;;;;;;;;;;;12.29;53.73;97176.41;4415608;32;19962;-69
2022/02/18 10:06:00;;;;;;;;;;;;;;;12.87;52.71;97199.81;4415826;32;19987;-69
2022/02/18 10:08:28;;;;;;;;;;;;;;;12.79;52.37;97213.81;4418286;32;20432;-69
2022/02/18 10:11:02;;;;;;;;;;;;;;;12.86;51.82;97181.37;4416660;32;20028;-70
2022/02/18 10:16:04;;;;;;;;;;;;;;;13.92;49.37;97145.66;3948101;32;15855315;-70
2022/02/18 10:18:51;;;;;;;;;;;;;;;13.92;49.37;97145.66;4429579;32;20334;-70
2022/02/18 10:21:17;;;;;;;;;;;;;;;13.58;49.70;97155.38;4425780;32;20004;-70
2022/02/18 10:23:43;;;;;;;;;;;;;;;13.50;49.44;97137.59;4426587;32;19957;-70
2022/02/18 10:26:09;;;;;;;;;;;;;;;13.87;48.06;97097.75;4424751;32;19953;-70
2022/02/18 10:28:35;;;;;;;;;;;;;;;14.62;47.55;97080.75;4429704;32;19963;-70
2022/02/18 10:31:02;;;;;;;;;;;;;;;14.14;46.54;97064.47;4426907;32;19949;-70
2022/02/18 10:33:27;;;;;;;;;;;;;;;14.74;46.70;97060.13;4431366;32;20041;-70
2022/02/18 10:35:58;;;;;;;;;;;;;;;14.95;45.81;97045.91;4430365;32;20000;-70
2022/02/18 10:38:39;;;;;;;;;;;;;;;14.64;45.85;97030.81;4428978;32;19945;-70
2022/02/18 10:41:23;;;;;;;;;;;;;;;14.59;46.65;97002.66;4427921;32;19964;-70
2022/02/18 10:43:51;;;;;;;;;;;;;;;15.13;45.81;96994.66;4427793;32;20005;-71
2022/02/18 10:46:19;;;;;;;;;;;;;;;15.24;45.94;96993.56;4426065;32;20004;-70
2022/02/18 10:48:46;;;;;;;;;;;;;;;15.02;46.10;96991.41;4427410;32;19969;-71
2022/02/18 10:51:14;;;;;;;;;;;;;;;14.85;46.43;96960.75;4426354;32;20021;-71
2022/02/18 10:53:44;;;;;;;;;;;;;;;14.73;46.19;96936.16;4427984;32;19950;-70
2022/02/18 10:56:12;;;;;;;;;;;;;;;14.49;46.59;96936.59;4412236;32;20007;-70
2022/02/18 10:58:39;;;;;;;;;;;;;;;14.55;46.77;96918.16;4428500;32;20006;-70
2022/02/18 11:01:06;;;;;;;;;;;;;;;14.62;47.25;96902.50;4431607;32;21202;-69
2022/02/18 11:03:32;;;;;;;;;;;;;;;14.92;46.68;96897.00;4414155;32;19975;-69
2022/02/18 11:06:17;;;;;;;;;;;;;;;14.80;46.12;96885.25;4424193;32;20457;-70
2022/02/18 11:09:04;;;;;;;;;;;;;;;15.17;45.82;96873.31;4424959;32;20010;-69
2022/02/18 11:11:32;;;;;;;;;;;;;;;15.48;46.08;96862.81;4429780;32;20090;-70
2022/02/18 11:14:00;;;;;;;;;;;;;;;15.59;45.76;96866.03;4427233;32;20020;-70
2022/02/18 11:16:26;;;;;;;;;;;;;;;15.12;45.96;96843.09;4425929;32;21229;-69
2022/02/18 11:18:52;;;;;;;;;;;;;;;14.78;47.05;96836.94;4425924;32;19978;-71
2022/02/18 11:21:18;;;;;;;;;;;;;;;13.51;47.65;96848.97;4428949;32;19996;-69
2022/02/18 11:23:44;;;;;;;;;;;;;;;13.34;49.37;96831.69;4429979;32;19965;-69
2022/02/18 11:26:10;;;;;;;;;;;;;;;13.30;49.11;96807.94;4427300;32;19997;-68
2022/02/18 11:28:39;;;;;;;;;;;;;;;13.58;48.95;96839.03;4416759;32;20480;-69
2022/02/18 11:31:06;;;;;;;;;;;;;;;13.42;49.51;96798.63;4419108;32;19989;-69
2022/02/18 11:44:27;;;;;;;;;;;;;;;13.41;50.22;96774.50;3952091;32;15722569;-69
2022/02/18 11:47:13;;;;;;;;;;;;;;;13.59;50.71;96779.19;4434906;32;19991;-69
2022/02/18 11:49:40;;;;;;;;;;;;;;;13.48;50.12;96765.38;4430157;32;20388;-69
2022/02/18 11:52:09;;;;;;;;;;;;;;;13.30;51.71;96762.75;4435912;32;19957;-69
2022/02/18 11:54:36;;;;;;;;;;;;;;;13.60;51.11;96754.53;4436238;32;19968;-69
2022/02/18 11:57:04;;;;;;;;;;;;;;;13.64;51.01;96755.69;4435889;32;20024;-69
2022/02/18 11:59:49;;;;;;;;;;;;;;;13.63;50.96;96765.44;4434237;32;20298;-69
2022/02/18 12:02:14;;;;;;;;;;;;;;;13.72;50.66;96741.59;4435016;32;19989;-69
2022/02/18 12:04:41;;;;;;;;;;;;;;;13.93;50.88;96753.59;4436207;32;19993;-69
2022/02/18 12:12:28;;;;;;;;;;;;;;;14.48;50.49;96743.47;3951486;32;15755498;-68
2022/02/18 12:14:54;;;;;;;;;;;;;;;14.19;50.96;96739.22;4425848;32;19965;-68
2022/02/18 12:17:21;;;;;;;;;;;;;;;14.37;50.98;96754.37;4428658;32;19996;-70
2022/02/18 12:19:47;;;;;;;;;;;;;;;14.26;51.07;96751.91;4415158;32;20031;-71
2022/02/18 12:22:12;;;;;;;;;;;;;;;14.48;51.27;96757.62;4429621;32;19954;-71
2022/02/18 12:24:46;;;;;;;;;;;;;;;13.84;51.75;96746.37;4430469;32;19977;-71
2022/02/18 12:29:56;;;;;;;;;;;;;;;14.03;51.26;96748.94;3952338;32;15722533;-70
2022/02/18 12:32:22;;;;;;;;;;;;;;;14.03;51.26;96748.94;4430887;32;20372;-69
2022/02/18 12:35:07;;;;;;;;;;;;;;;13.50;52.35;96753.50;4427920;32;19981;-69
2022/02/18 12:37:34;;;;;;;;;;;;;;;13.18;52.33;96762.28;4428454;32;20197;-70
2022/02/18 12:40:00;;;;;;;;;;;;;;;13.46;52.36;96765.16;4429054;32;19954;-70
2022/02/18 12:42:27;;;;;;;;;;;;;;;13.87;52.32;96756.56;4430554;32;20279;-69
2022/02/18 12:44:54;;;;;;;;;;;;;;;13.51;52.03;96778.38;4426971;32;20411;-70
2022/02/18 12:47:21;;;;;;;;;;;;;;;13.42;51.44;96772.47;4432046;32;20024;-68
2022/02/18 12:49:47;;;;;;;;;;;;;;;13.78;49.88;96818.50;4427802;32;19996;-69
2022/02/18 12:52:12;;;;;;;;;;;;;;;14.03;48.83;96871.22;4431957;32;20028;-69
2022/02/18 12:57:22;;;;;;;;;;;;;;;15.16;46.02;96910.69;3931967;32;15726551;-68
2022/02/18 12:59:48;;;;;;;;;;;;;;;15.16;46.02;96910.69;4412586;32;20008;-68
2022/02/18 13:02:34;;;;;;;;;;;;;;;15.28;45.69;96943.00;4410321;32;19962;-68
2022/02/18 13:05:08;;;;;;;;;;;;;;;14.67;46.19;96946.88;4412022;32;20020;-68